Tiempo atmosférico en la estación meteorológica de Pola de Somiedo, Asturias (668 m.)



Fecha
DESCASC
Temp. máxima en grados centígrados (hora)
DESCASC
Temp. mínima en grados centígrados (hora)
DESCASC
Temp. media en grados centígrados
DESCASC
Racha de viento máxima en m/sg (hora)
DESCASC
Velocidad máxima media en intervalos de 10 minutos(hora)
DESCASC
Precipitaciones diarias en mm
DESCASC
Precipitaciones de 00:00 a 06:00 en mm
DESCASC
Precipitaciones de 06:00 a 12:00 en mm
DESCASC
Precipitaciones de 12:00 a 18:00 en mm
DESCASC
Precipitaciones de 18:00 a 24:00 en mm
DESCASC
20-09-2018 30.1 (16:00) 7.4 (09:00) 18.8 8.61 (16:10) 3.06 (14:00) 0 0 0 0 0
19-09-2018 25.1 (15:30) 8.1 (06:20) 16.6 6.39 (13:10) 2.5 (13:40) 0 0 0 0 0
18-09-2018 24.4 (15:20) 9.5 (08:30) 16.9 5.56 (13:30) 2.22 (12:40) 0.2 0 0 0.2 0
17-09-2018 30 (16:30) 9.4 (07:00) 19.7 11.67 (13:40) 3.89 (13:50) 3.6 0 0 0 3.6
16-09-2018 21.7 (14:20) 10.9 (00:00) 16.3 6.11 (12:30) 2.5 (12:40) 0 0 0 0 0
15-09-2018 25.1 (16:50) 14.2 (00:00) 19.7 4.44 (14:40) 1.67 (14:00) 0 0 0 0 0
14-09-2018 22.7 (15:10) 15.1 (00:00) 18.9 7.78 (16:10) 2.78 (16:10) 0 0 0 0 0
13-09-2018 25.1 (16:10) 12.9 (00:00) 19 5.83 (16:30) 2.22 (16:50) 0 0 0 0 0
12-09-2018 25.6 (15:10) 11.4 (00:00) 18.5 8.06 (15:30) 3.33 (15:10) 0 0 0 0 0
11-09-2018 28.5 (15:20) 10.7 (00:00) 19.6 4.72 (16:00) 1.67 (15:30) 0 0 0 0 0
10-09-2018 27.2 (16:30) 9 (00:00) 18.1 5.56 (17:20) 2.22 (17:00) 0 0 0 0 0
09-09-2018 24 (14:20) 10.4 (00:00) 17.2 5.28 (14:40) 2.22 (15:50) 0.4 0.4 0 0 0
08-09-2018 24.2 (16:30) 9.6 (00:00) 16.9 4.72 (13:10) 1.94 (13:00) 1.4 0 0 0.4 1
07-09-2018 21.6 (15:00) 11.7 (00:00) 16.7 5.28 (13:00) 2.22 (13:30) 0.4 0.2 0 0.2 0
06-09-2018 19.1 (15:30) 13.4 (00:00) 16.3 5 (16:00) 2.22 (18:00) 2.4 1 0.4 0 1
05-09-2018 19.2 (15:10) 14 (00:00) 16.6 5.83 (04:00) 1.94 (15:40) 3.8 1.8 1.8 0.2 0
04-09-2018 22.4 (15:30) 12.8 (00:00) 17.6 5.83 (14:00) 2.22 (14:20) 0 0 0 0 0
03-09-2018 21.6 (16:50) 10.6 (00:00) 16.1 4.72 (14:40) 1.94 (14:20) 1.4 0 0 0 1.4
02-09-2018 31.8 (15:10) 12.8 (00:00) 22.3 4.72 (17:10) 1.94 (16:20) 0.2 0 0 0 0.2
01-09-2018 28.1 (15:30) 10.8 (00:00) 19.5 6.11 (15:30) 2.22 (16:00) 0 0 0 0 0
31-08-2018 26.7 (15:40) 7.9 (00:00) 17.3 5.28 (14:20) 1.94 (14:20) 0 0 0 0 0
30-08-2018 21.9 (17:50) 14.5 (00:00) 18.2 4.17 (17:20) 1.67 (14:20) 0 0 0 0 0
29-08-2018 21.3 (12:50) 14.5 (00:00) 17.9 5.83 (12:30) 2.78 (12:30) 0.6 0 0.6 0 0
28-08-2018 28.5 (14:30) 14.7 (00:00) 21.6 8.33 (14:10) 3.33 (14:00) 0.8 0.4 0.4 0 0
27-08-2018 27.6 (16:10) 10.7 (00:00) 19.2 5.83 (18:30) 2.5 (14:50) 0 0 0 0 0
26-08-2018 26.4 (15:50) 10 (00:00) 18.2 6.94 (15:30) 2.5 (14:10) 0 0 0 0 0
25-08-2018 22.2 (16:00) 10.2 (00:00) 16.2 6.11 (21:00) 2.22 (21:00) 0 0 0 0 0
24-08-2018 22.1 (13:50) 14.3 (00:00) 18.2 6.94 (16:30) 2.78 (15:50) 0 0 0 0 0
23-08-2018 27.4 (16:00) 12.6 (00:00) 20 5.56 (15:00) 2.5 (19:40) 0 0 0 0 0

Gráficas

Temp. máximas Temp. mínimas Temp. medias Precipitaciones Rachas de viento máximas Velocidades máximas media en intervalos de 10 minutos

Datos horarios

Fecha y hora oficial Temperatura (ºC) Velocidad del viento (km/h) Dirección del viento Racha (km/h) Dirección de racha Precipitación (mm) Presión (hPa) Tendencia (hPa) Humedad (%)
2018-09-21 23:00:00 16.7 0 Calma 9 Noroeste 0 -- -- 95
2018-09-21 22:00:00 16.9 0 Calma 7 Noroeste 0 -- -- 94
2018-09-21 21:00:00 17.4 2 Norte 18 Norte 0 -- -- 91
2018-09-21 20:00:00 18.2 5 Noroeste 23 Nordeste 0 -- -- 88
2018-09-21 19:00:00 20.1 5 Noroeste 18 Noroeste 0 -- -- 80
2018-09-21 18:00:00 21.8 4 Noroeste 14 Noroeste 0 -- -- 72
2018-09-21 17:00:00 22.6 5 Noroeste 17 Noroeste 0 -- -- 68
2018-09-21 16:00:00 21.8 6 Norte 18 Nordeste 0 -- -- 70
2018-09-21 15:00:00 23.8 8 Norte 20 Noroeste 0 -- -- 64
2018-09-21 14:00:00 22.4 6 Norte 14 Noroeste 0 -- -- 68
2018-09-21 13:00:00 20 3 Nordeste 6 Nordeste 0 -- -- 70
2018-09-21 12:00:00 17.1 0 Calma 5 Norte 0 -- -- 81
2018-09-21 11:00:00 15 2 Norte 6 Este 0 -- -- 88
2018-09-21 10:00:00 12.5 3 Norte 6 Sudoeste 0 -- -- 93
2018-09-21 09:00:00 10.5 2 Nordeste 6 Oeste 0 -- -- 99
2018-09-21 08:00:00 10.1 2 Norte 6 Sur 0 -- -- 98
2018-09-21 07:00:00 10.1 0 Calma 6 Oeste 0 -- -- 100
2018-09-21 06:00:00 9.8 0 Calma 6 Sudeste 0 -- -- 99
2018-09-21 05:00:00 10.1 0 Calma 6 Sur 0 -- -- 98
2018-09-21 04:00:00 10.3 3 Noroeste 6 Sudoeste 0 -- -- 97
2018-09-21 03:00:00 10.8 0 Calma 6 Sudoeste 0 -- -- 96
2018-09-21 02:00:00 11.5 0 Calma 4 Sudeste 0 -- -- 94
2018-09-21 01:00:00 12.3 3 Sur 6 Sudoeste 0 -- -- 94
2018-09-21 00:00:00 13.1 2 Sur 6 Sur 0 -- -- 94
2018-09-20 23:00:00 14.1 0 Calma 4 Sur 0 -- -- 93
2018-09-20 22:00:00 15.4 2 Sudoeste 4 Sudoeste 0 -- -- 90
2018-09-20 21:00:00 17.7 2 Norte 5 Sudoeste 0 -- -- 86
2018-09-20 20:00:00 20.7 3 Sudoeste 10 Norte 0 -- -- 78
2018-09-20 19:00:00 22.4 4 Noroeste 13 Noroeste 0 -- -- 70
2018-09-20 18:00:00 23.8 5 Noroeste 19 Norte 0 -- -- 63
2018-09-20 17:00:00 25.9 5 Noroeste 31 Sudoeste 0 -- -- 53
2018-09-20 16:00:00 30.1 8 Sur 23 Sudeste 0 -- -- 29
2018-09-20 15:00:00 29.2 8 Sur 23 Sudeste 0 -- -- 32
2018-09-20 14:00:00 26.9 11 Sur 28 Oeste 0 -- -- 37
2018-09-20 13:00:00 21.9 2 Norte 6 Este 0 -- -- 60
2018-09-20 12:00:00 15.8 0 Calma 0 Calma 0 -- -- 85
2018-09-20 11:00:00 8.4 0 Calma 0 Calma 0 -- -- 100
2018-09-20 10:00:00 7.7 0 Calma -- -- 0 -- -- 100
2018-09-20 09:00:00 7.4 0 Calma 3 Sur 0 -- -- 100
2018-09-20 08:00:00 7.7 2 Sur 4 Este 0 -- -- 100
2018-09-20 07:00:00 8.1 3 Sur 5 Sudoeste 0 -- -- 100
2018-09-20 06:00:00 8.9 2 Sur 4 Sudoeste 0 -- -- 100
2018-09-20 05:00:00 9.6 0 Calma 4 Sudoeste 0 -- -- 100
2018-09-20 04:00:00 10.3 0 Calma 3 Sur 0 -- -- 99
2018-09-20 03:00:00 11 2 Sur 4 Sudoeste 0 -- -- 98
2018-09-20 02:00:00 12.1 0 Calma 3 Sur 0 -- -- 97
2018-09-20 01:00:00 13.4 0 Calma 4 Sur 0 -- -- 97
2018-09-20 00:00:00 14.6 0 Calma 2 Sudeste 0 -- -- 97
2018-09-19 23:00:00 14.5 0 Calma 4 Sur 0 -- -- 98
2018-09-19 22:00:00 14.6 2 Sur 4 Sur 0 -- -- 94
2018-09-19 21:00:00 16.5 0 Calma 8 Sudoeste 0 -- -- 90
2018-09-19 20:00:00 18.3 2 Noroeste 9 Norte 0 -- -- 87
2018-09-19 19:00:00 20.2 2 Noroeste 15 Noroeste 0 -- -- 79
2018-09-19 18:00:00 22.2 5 Noroeste 19 Norte 0 -- -- 69
2018-09-19 17:00:00 24.2 9 Norte 22 Nordeste 0 -- -- 63
2018-09-19 16:00:00 24.9 8 Norte 19 Norte 0 -- -- 62
2018-09-19 15:00:00 24.8 7 Norte 23 Noroeste 0 -- -- 57
2018-09-19 14:00:00 23.3 8 Norte 23 Nordeste 0 -- -- 62
2018-09-19 13:00:00 21.5 8 Norte 21 Noroeste 0 -- -- 64
2018-09-19 12:00:00 16.5 3 Este 6 Este 0 -- -- 78
2018-09-19 11:00:00 9.2 0 Calma 0 Calma 0 -- -- 100
2018-09-19 10:00:00 8.4 0 Calma -- -- 0 -- -- 100
2018-09-19 09:00:00 8.2 0 Calma 4 Sur 0 -- -- 100
2018-09-19 08:00:00 8.4 0 Calma 4 Sudoeste 0 -- -- 100
2018-09-19 07:00:00 8.3 0 Calma 5 Sur 0 -- -- 100
2018-09-19 06:00:00 8.3 0 Calma 4 Sudoeste 0 -- -- 100
2018-09-19 05:00:00 8.9 0 Calma 5 Sur 0 -- -- 99
2018-09-19 04:00:00 9.6 0 Calma 3 Sudoeste 0 -- -- 98
2018-09-19 03:00:00 10.7 0 Calma 4 Sur 0 -- -- 96
2018-09-19 02:00:00 12.5 0 Calma 3 Sur 0 -- -- 93
2018-09-19 01:00:00 13.8 0 Calma 4 Sudoeste 0 -- -- 95
2018-09-19 00:00:00 13.7 0 Calma 4 Sur 0 -- -- 98
2018-09-18 23:00:00 14.2 0 Calma 4 Sudoeste 0 -- -- 98
2018-09-18 22:00:00 15.4 0 Calma 5 Sur 0 -- -- 94
2018-09-18 21:00:00 17.7 2 Sur 12 Norte 0 -- -- 89
2018-09-18 20:00:00 19.5 3 Este 9 Norte 0 -- -- 83
2018-09-18 19:00:00 20.6 3 Noroeste 15 Noroeste 0 -- -- 79
2018-09-18 18:00:00 23.1 5 Norte 19 Norte 0 -- -- 68
2018-09-18 17:00:00 23.9 6 Norte 19 Norte 0 -- -- 65
2018-09-18 16:00:00 24.1 7 Norte 19 Norte 0 -- -- 66
2018-09-18 15:00:00 24.2 8 Norte 20 Norte 0 -- -- 65
2018-09-18 14:00:00 23.2 8 Norte 20 Norte 0 -- -- 67
2018-09-18 13:00:00 20.9 6 Noroeste 19 Nordeste 0.2 -- -- 77
2018-09-18 12:00:00 16.2 0 Calma 0 Calma 0 -- -- 100
2018-09-18 11:00:00 10.4 0 Calma -- -- 0 -- -- 100
2018-09-18 10:00:00 9.9 0 Calma -- -- 0 -- -- 100
2018-09-18 09:00:00 9.5 0 Calma -- -- 0 -- -- 100
2018-09-18 08:00:00 9.6 0 Calma -- -- 0 -- -- 100
2018-09-18 07:00:00 10.1 0 Calma -- -- 0 -- -- 100
2018-09-18 06:00:00 10.3 0 Calma -- -- 0 -- -- 100
2018-09-18 05:00:00 10.8 0 Calma -- -- 0 -- -- 100
2018-09-18 04:00:00 11.4 0 Calma 5 Sudoeste 0 -- -- 100
2018-09-18 03:00:00 12.1 0 Calma 5 Sudoeste 0 -- -- 100
2018-09-18 02:00:00 12.9 2 Sur 5 Sur 0 -- -- 99
2018-09-18 01:00:00 13.7 0 Calma 4 Sur 0 -- -- 99
2018-09-18 00:00:00 14.4 0 Calma 5 Oeste 0 -- -- 99
2018-09-17 23:00:00 15.3 2 Sudeste 5 Oeste 0 -- -- 98
2018-09-17 22:00:00 16.3 0 Calma 4 Oeste 0 -- -- 97
2018-09-17 21:00:00 17.7 0 Calma 6 Sudoeste 0 -- -- 95
2018-09-17 20:00:00 18.9 0 Calma 7 Sudoeste 1.2 -- -- 95
2018-09-17 19:00:00 19.7 2 Noroeste 16 Noroeste 2.4 -- -- 92
2018-09-17 18:00:00 27.1 3 Sudoeste 24 Sur 0 -- -- 46
2018-09-17 17:00:00 29.7 8 Sur 25 Sudeste 0 -- -- 38
2018-09-17 16:00:00 29.4 10 Sur 30 Sur 0 -- -- 37
2018-09-17 15:00:00 29.6 7 Sur 30 Sur 0 -- -- 36
2018-09-17 14:00:00 28.9 14 Sudeste 42 Sudeste 0 -- -- 40
2018-09-17 13:00:00 28.2 6 Sur 31 Sudeste 0 -- -- 43
2018-09-17 12:00:00 25.1 8 Sur 27 Este 0 -- -- 50
2018-09-17 11:00:00 12.9 3 Nordeste 9 Norte 0 -- -- 100
2018-09-17 10:00:00 10.7 2 Sudoeste 6 Sudeste 0 -- -- 100
2018-09-17 09:00:00 10.1 2 Sur 6 Sudoeste 0 -- -- 100
2018-09-17 08:00:00 9.8 0 Calma 8 Este 0 -- -- 100
2018-09-17 07:00:00 9.4 0 Calma 6 Sudoeste 0 -- -- 100
2018-09-17 06:00:00 9.5 0 Calma 5 Oeste 0 -- -- 100
2018-09-17 05:00:00 9.9 0 Calma 6 Sudoeste 0 -- -- 100
2018-09-17 04:00:00 10.2 0 Calma 5 Sur 0 -- -- 100
2018-09-17 03:00:00 10.6 0 Calma -- -- 0 -- -- 100
2018-09-17 02:00:00 11.4 0 Calma -- -- 0 -- -- 100
2018-09-17 01:00:00 12.1 0 Calma -- -- 0 -- -- 100
2018-09-17 00:00:00 12.8 0 Calma -- -- 0 -- -- 99
2018-09-16 23:00:00 13.7 0 Calma -- -- 0 -- -- 98
2018-09-16 22:00:00 14.9 0 Calma 3 Sur 0 -- -- 96
2018-09-16 21:00:00 16.6 2 Sur 5 Este 0 -- -- 94
2018-09-16 20:00:00 18.5 4 Sudoeste 17 Noroeste 0 -- -- 90
2018-09-16 19:00:00 20.1 3 Sudeste 11 Norte 0 -- -- 84
2018-09-16 18:00:00 21.6 5 Noroeste 17 Noroeste 0 -- -- 78
2018-09-16 17:00:00 21.1 5 Noroeste 18 Noroeste 0 -- -- 82
2018-09-16 16:00:00 21 5 Noroeste 18 Noroeste 0 -- -- 80
2018-09-16 15:00:00 21.6 6 Noroeste 17 Noroeste 0 -- -- 77
2018-09-16 14:00:00 21.1 7 Noroeste 19 Noroeste 0 -- -- 78
2018-09-16 13:00:00 20.2 8 Noroeste 22 Noroeste 0 -- -- 83
2018-09-16 12:00:00 19.4 6 Noroeste 21 Noroeste 0 -- -- 85
2018-09-16 11:00:00 13.7 0 Calma -- -- 0 -- -- 100
2018-09-16 10:00:00 12.8 0 Calma -- -- 0 -- -- 100
2018-09-16 09:00:00 11.4 0 Calma -- -- 0 -- -- 100
2018-09-16 08:00:00 11.1 0 Calma 0 Calma 0 -- -- 100
2018-09-16 07:00:00 11.3 0 Calma -- -- 0 -- -- 100
2018-09-16 06:00:00 11.6 0 Calma -- -- 0 -- -- 100
2018-09-16 05:00:00 12.1 0 Calma -- -- 0 -- -- 100
2018-09-16 04:00:00 12.7 0 Calma -- -- 0 -- -- 100
2018-09-16 03:00:00 13.3 0 Calma 5 Sudoeste 0 -- -- 100
2018-09-16 02:00:00 13.9 2 Sur 5 Sudeste 0 -- -- 100
2018-09-16 01:00:00 14.4 2 Sur 5 Sur 0 -- -- 99
2018-09-16 00:00:00 15 0 Calma 5 Sur 0 -- -- 98
2018-09-15 23:00:00 15.8 3 Sur 5 Sur 0 -- -- 97
2018-09-15 22:00:00 16.9 0 Calma 4 Sudoeste 0 -- -- 95
2018-09-15 21:00:00 18.4 2 Sur 3 Sudoeste 0 -- -- 92
2018-09-15 20:00:00 20.3 0 Calma 5 Sudoeste 0 -- -- 88
2018-09-15 19:00:00 22.3 3 Sur 8 Sudoeste 0 -- -- 80
2018-09-15 18:00:00 24.8 3 Noroeste 14 Norte 0 -- -- 68
2018-09-15 17:00:00 24.7 6 Noroeste 15 Noroeste 0 -- -- 69
2018-09-15 16:00:00 24.2 5 Noroeste 15 Noroeste 0 -- -- 68
2018-09-15 15:00:00 23.8 5 Norte 16 Norte 0 -- -- 71
2018-09-15 14:00:00 22.6 6 Noroeste 15 Norte 0 -- -- 72
2018-09-15 13:00:00 22.4 4 Norte 11 Noroeste 0 -- -- 74
2018-09-15 12:00:00 19.6 3 Este 7 Este 0 -- -- 81
2018-09-15 11:00:00 14.3 0 Calma 2 Nordeste 0 -- -- 98
2018-09-15 10:00:00 14.6 0 Calma 4 Sudoeste 0 -- -- 95
2018-09-15 09:00:00 14.4 0 Calma 4 Sur 0 -- -- 95
2018-09-15 08:00:00 14.5 0 Calma 4 Norte 0 -- -- 94
2018-09-15 07:00:00 14.8 0 Calma 3 Sur 0 -- -- 97
2018-09-15 06:00:00 14.9 0 Calma 2 Este 0 -- -- 96
2018-09-15 05:00:00 14.9 0 Calma 5 Sudoeste 0 -- -- 94
2018-09-15 04:00:00 15.4 0 Calma 5 Sudeste 0 -- -- 91
2018-09-15 03:00:00 16.3 0 Calma 2 Nordeste 0 -- -- 97
2018-09-15 02:00:00 16.3 0 Calma 9 Noroeste 0 -- -- 96
2018-09-15 01:00:00 16.5 0 Calma 6 Noroeste 0 -- -- 96
2018-09-15 00:00:00 16.7 0 Calma 8 Noroeste 0 -- -- 95
2018-09-14 23:00:00 16.8 3 Norte 10 Norte 0 -- -- 95
2018-09-14 22:00:00 17 3 Noroeste 9 Noroeste 0 -- -- 95
2018-09-14 21:00:00 17.3 3 Noroeste 10 Noroeste 0 -- -- 95
2018-09-14 20:00:00 18 3 Noroeste 14 Norte 0 -- -- 91
2018-09-14 19:00:00 19 5 Norte 17 Norte 0 -- -- 88
2018-09-14 18:00:00 19.7 7 Norte 25 Norte 0 -- -- 84
2018-09-14 17:00:00 22 8 Norte 28 Norte 0 -- -- 77
2018-09-14 16:00:00 22.4 10 Norte 24 Nordeste 0 -- -- 74
2018-09-14 15:00:00 22.5 8 Norte 22 Nordeste 0 -- -- 77
2018-09-14 14:00:00 21.9 8 Norte 21 Norte 0 -- -- 73
2018-09-14 13:00:00 20.9 6 Norte 18 Norte 0 -- -- 75
2018-09-14 12:00:00 19.4 5 Norte 14 Norte 0 -- -- 78
2018-09-14 11:00:00 15.2 0 Calma 2 Sudeste 0 -- -- 93
2018-09-14 10:00:00 15.9 0 Calma 12 Oeste 0 -- -- 86
2018-09-14 09:00:00 15.3 0 Calma 5 Sudoeste 0 -- -- 92
2018-09-14 08:00:00 15.2 0 Calma 2 Sur 0 -- -- 97
2018-09-14 07:00:00 15.5 0 Calma 2 Sudoeste 0 -- -- 97
2018-09-14 06:00:00 15.6 0 Calma 2 Este 0 -- -- 98
2018-09-14 05:00:00 15.8 0 Calma 2 Noroeste 0 -- -- 97
2018-09-14 04:00:00 15.8 0 Calma 3 Noroeste 0 -- -- 96
2018-09-14 03:00:00 15.8 0 Calma 8 Noroeste 0 -- -- 96
2018-09-14 02:00:00 15.9 3 Noroeste 9 Noroeste 0 -- -- 96
2018-09-14 01:00:00 16.2 3 Noroeste 12 Norte 0 -- -- 95
2018-09-14 00:00:00 16.6 3 Noroeste 11 Noroeste 0 -- -- 94
2018-09-13 23:00:00 17.2 4 Noroeste 10 Nordeste 0 -- -- 93
2018-09-13 22:00:00 17.8 4 Noroeste 12 Noroeste 0 -- -- 91
2018-09-13 21:00:00 18.4 4 Noroeste 16 Noroeste 0 -- -- 89
2018-09-13 20:00:00 19.2 5 Noroeste 17 Noroeste 0 -- -- 86
2018-09-13 19:00:00 20.5 6 Norte 17 Norte 0 -- -- 80
2018-09-13 18:00:00 22.6 8 Norte 18 Nordeste 0 -- -- 72
2018-09-13 17:00:00 24.5 6 Norte 21 Norte 0 -- -- 67
2018-09-13 16:00:00 25 6 Norte 19 Norte 0 -- -- 66
2018-09-13 15:00:00 24.8 6 Norte 18 Nordeste 0 -- -- 62
2018-09-13 14:00:00 23.4 6 Norte 18 Norte 0 -- -- 65
2018-09-13 13:00:00 21.8 6 Norte 18 Norte 0 -- -- 70
2018-09-13 12:00:00 19.8 5 Nordeste 16 Nordeste 0 -- -- 72
2018-09-13 11:00:00 14.9 2 Norte 7 Sudoeste 0 -- -- 93
2018-09-13 10:00:00 15.2 0 Calma 7 Sur 0 -- -- 90
2018-09-13 09:00:00 14.2 0 Calma 8 Sudeste 0 -- -- 92
2018-09-13 08:00:00 14.5 0 Calma 3 Sur 0 -- -- 99
2018-09-13 07:00:00 14.4 0 Calma 4 Sudeste 0 -- -- 99
2018-09-13 06:00:00 14.1 0 Calma 3 Sudeste 0 -- -- 100
2018-09-13 05:00:00 13.5 0 Calma 3 Sur 0 -- -- 100
2018-09-13 04:00:00 12.9 0 Calma 3 Sur 0 -- -- 97
2018-09-13 03:00:00 14.3 0 Calma 2 Sur 0 -- -- 95
2018-09-13 02:00:00 16.2 0 Calma 4 Sur 0 -- -- 95
2018-09-13 01:00:00 17.5 0 Calma 3 Sur 0 -- -- 95
2018-09-13 00:00:00 17.9 0 Calma 11 Noroeste 0 -- -- 93
2018-09-12 23:00:00 18.7 3 Norte 10 Norte 0 -- -- 91
2018-09-12 22:00:00 19.2 3 Noroeste 10 Norte 0 -- -- 90
2018-09-12 21:00:00 19.6 3 Oeste 15 Norte 0 -- -- 87
2018-09-12 20:00:00 20.4 6 Noroeste 17 Nordeste 0 -- -- 84
2018-09-12 19:00:00 21.8 5 Norte 14 Nordeste 0 -- -- 79
2018-09-12 18:00:00 23.9 6 Noroeste 21 Norte 0 -- -- 71
2018-09-12 17:00:00 25.3 8 Norte 21 Norte 0 -- -- 66
2018-09-12 16:00:00 25.1 9 Norte 29 Nordeste 0 -- -- 67
2018-09-12 15:00:00 25.5 9 Norte 22 Noroeste 0 -- -- 61
2018-09-12 14:00:00 25.2 8 Norte 22 Norte 0 -- -- 63
2018-09-12 13:00:00 23.6 6 Noroeste 14 Noroeste 0 -- -- 60
2018-09-12 12:00:00 19.5 0 Calma 0 Calma 0 -- -- 79
2018-09-12 11:00:00 12.9 0 Calma -- -- 0 -- -- 100
2018-09-12 10:00:00 11.9 0 Calma 0 Calma 0 -- -- 100
2018-09-12 09:00:00 11.6 0 Calma 4 Sudoeste 0 -- -- 100
2018-09-12 08:00:00 11.4 2 Sur 5 Sur 0 -- -- 100
2018-09-12 07:00:00 11.6 2 Sur 5 Sur 0 -- -- 100
2018-09-12 06:00:00 12 2 Sudeste 6 Sur 0 -- -- 100
2018-09-12 05:00:00 12.5 0 Calma 5 Sudoeste 0 -- -- 100
2018-09-12 04:00:00 13.1 3 Sur 6 Sudeste 0 -- -- 99
2018-09-12 03:00:00 13.6 2 Sur 4 Sudoeste 0 -- -- 100
2018-09-12 02:00:00 13.9 2 Sur 5 Sur 0 -- -- 99
2018-09-12 01:00:00 14.3 0 Calma -- -- 0 -- -- 98
2018-09-12 00:00:00 14.9 0 Calma 5 Sur 0 -- -- 97
2018-09-11 23:00:00 15.5 0 Calma 4 Sur 0 -- -- 95
2018-09-11 22:00:00 16.5 0 Calma 5 Sur 0 -- -- 93
2018-09-11 21:00:00 18.1 0 Calma 3 Sudoeste 0 -- -- 89
2018-09-11 20:00:00 20.3 0 Calma 6 Sur 0 -- -- 82
2018-09-11 19:00:00 23.2 0 Calma 10 Noroeste 0 -- -- 70
2018-09-11 18:00:00 26.9 5 Noroeste 13 Noroeste 0 -- -- 56
2018-09-11 17:00:00 28.2 5 Norte 14 Norte 0 -- -- 53
2018-09-11 16:00:00 28.4 6 Norte 17 Noroeste 0 -- -- 50
2018-09-11 15:00:00 28.2 5 Norte 13 Noroeste 0 -- -- 47
2018-09-11 14:00:00 27.3 4 Norte 12 Norte 0 -- -- 50
2018-09-11 13:00:00 24.6 0 Calma 4 Nordeste 0 -- -- 56
2018-09-11 12:00:00 19.4 0 Calma -- -- 0 -- -- 86
2018-09-11 11:00:00 12.1 0 Calma -- -- 0 -- -- 100
2018-09-11 10:00:00 11.4 0 Calma -- -- 0 -- -- 100
2018-09-11 09:00:00 11 0 Calma -- -- 0 -- -- 100
2018-09-11 08:00:00 10.8 0 Calma -- -- 0 -- -- 100
2018-09-11 07:00:00 10.9 0 Calma -- -- 0 -- -- 100
2018-09-11 06:00:00 11.2 0 Calma -- -- 0 -- -- 100
2018-09-11 05:00:00 11.4 0 Calma 4 Sur 0 -- -- 100
2018-09-11 04:00:00 11.6 2 Sur 4 Sudeste 0 -- -- 100
2018-09-11 03:00:00 11.9 0 Calma -- -- 0 -- -- 100
2018-09-11 02:00:00 12.4 0 Calma -- -- 0 -- -- 99
2018-09-11 01:00:00 13 0 Calma -- -- 0 -- -- 98
2018-09-11 00:00:00 13.9 0 Calma -- -- 0 -- -- 97
2018-09-10 23:00:00 14.8 0 Calma 3 Sur 0 -- -- 96
2018-09-10 22:00:00 16 0 Calma 4 Sudoeste 0 -- -- 93
2018-09-10 21:00:00 18 0 Calma 5 Sudoeste 0 -- -- 89
2018-09-10 20:00:00 20 2 Sur 17 Norte 0 -- -- 84
2018-09-10 19:00:00 21.2 4 Noroeste 16 Noroeste 0 -- -- 78
2018-09-10 18:00:00 24.2 6 Norte 20 Nordeste 0 -- -- 69
2018-09-10 17:00:00 26 8 Norte 19 Norte 0 -- -- 65
2018-09-10 16:00:00 27 5 Norte 14 Norte 0 -- -- 54
2018-09-10 15:00:00 26.2 6 Norte 15 Norte 0 -- -- 54
2018-09-10 14:00:00 24 4 Norte 12 Nordeste 0 -- -- 57
2018-09-10 13:00:00 21.2 3 Nordeste 10 Nordeste 0 -- -- 67
2018-09-10 12:00:00 16.4 0 Calma 4 Norte 0 -- -- 86
2018-09-10 11:00:00 9.9 0 Calma -- -- 0 -- -- 100
2018-09-10 10:00:00 9.1 0 Calma -- -- 0 -- -- 100
2018-09-10 09:00:00 9.1 0 Calma -- -- 0 -- -- 100
2018-09-10 08:00:00 9.2 0 Calma -- -- 0 -- -- 100
2018-09-10 07:00:00 9.5 0 Calma 0 Calma 0 -- -- 100
2018-09-10 06:00:00 9.9 0 Calma -- -- 0 -- -- 100
2018-09-10 05:00:00 10.4 0 Calma -- -- 0 -- -- 100
2018-09-10 04:00:00 11.2 0 Calma -- -- 0 -- -- 98
2018-09-10 03:00:00 12.4 0 Calma -- -- 0 -- -- 96
2018-09-10 02:00:00 14.3 0 Calma -- -- 0 -- -- 93
2018-09-10 01:00:00 15.1 0 Calma 0 Calma 0 -- -- 97
2018-09-10 00:00:00 14.8 0 Calma 3 Sur 0 -- -- 98
2018-09-09 23:00:00 15.5 0 Calma 4 Sudoeste 0 -- -- 96
2018-09-09 22:00:00 15.4 0 Calma 3 Oeste 0 -- -- 95
2018-09-09 21:00:00 16.7 0 Calma 5 Sur 0 -- -- 90
2018-09-09 20:00:00 19.3 0 Calma 6 Noroeste 0 -- -- 85
2018-09-09 19:00:00 20.1 2 Noroeste 10 Norte 0 -- -- 82
2018-09-09 18:00:00 21.9 3 Norte 16 Nordeste 0 -- -- 73
2018-09-09 17:00:00 21.8 4 Norte 14 Noroeste 0 -- -- 75
2018-09-09 16:00:00 22.3 5 Norte 19 Noroeste 0 -- -- 73
2018-09-09 15:00:00 23.7 6 Norte 19 Nordeste 0 -- -- 70
2018-09-09 14:00:00 23.6 6 Norte 14 Nordeste 0 -- -- 68
2018-09-09 13:00:00 21.8 7 Nordeste 15 Nordeste 0 -- -- 70
2018-09-09 12:00:00 18.3 4 Sudeste 6 Sudeste 0 -- -- 87
2018-09-09 11:00:00 12.5 0 Calma 3 Nordeste 0 -- -- 100
2018-09-09 10:00:00 10.9 0 Calma 3 Sur 0 -- -- 100
2018-09-09 09:00:00 10.5 2 Sur 4 Sudoeste 0 -- -- 100
2018-09-09 08:00:00 10.6 0 Calma 4 Oeste 0 -- -- 100
2018-09-09 07:00:00 11.6 2 Sur 4 Sudeste 0 -- -- 100
2018-09-09 06:00:00 12.4 0 Calma 4 Sudoeste 0 -- -- 100
2018-09-09 05:00:00 13.3 0 Calma 3 Sur 0 -- -- 100
2018-09-09 04:00:00 13.7 0 Calma 4 Sur 0 -- -- 100
2018-09-09 03:00:00 14 0 Calma 5 Sudoeste 0 -- -- 100
2018-09-09 02:00:00 14 0 Calma 5 Sur 0.4 -- -- 100
2018-09-09 01:00:00 13.7 0 Calma 4 Oeste 0 -- -- 100
2018-09-09 00:00:00 13.7 2 Sur 5 Sudoeste 0 -- -- 100
2018-09-08 23:00:00 14.2 0 Calma 4 Norte 0 -- -- 98
2018-09-08 22:00:00 15.5 2 Sur 4 Sur 0 -- -- 97
2018-09-08 21:00:00 16.8 0 Calma 4 Sudoeste 0 -- -- 96
2018-09-08 20:00:00 18.1 0 Calma 4 Oeste 0.8 -- -- 95
2018-09-08 19:00:00 18.8 0 Calma 4 Sudoeste 0.2 -- -- 94
2018-09-08 18:00:00 20 0 Calma 9 Sur 0.2 -- -- 91
2018-09-08 17:00:00 22.4 5 Sudoeste 10 Oeste 0.2 -- -- 78
2018-09-08 16:00:00 23 4 Nordeste 10 Norte 0 -- -- 72
2018-09-08 15:00:00 21.2 2 Nordeste 12 Noroeste 0 -- -- 79
2018-09-08 14:00:00 22 4 Norte 17 Norte 0 -- -- 65
2018-09-08 13:00:00 23.2 7 Noroeste 16 Noroeste 0 -- -- 63
2018-09-08 12:00:00 18.8 3 Norte 10 Noroeste 0 -- -- 87
2018-09-08 11:00:00 11.7 0 Calma 4 Sudoeste 0 -- -- 100
2018-09-08 10:00:00 10.8 0 Calma 4 Sudeste 0 -- -- 100
2018-09-08 09:00:00 10.2 0 Calma 6 Sudeste 0 -- -- 100
2018-09-08 08:00:00 9.7 0 Calma 5 Sudeste 0 -- -- 100
2018-09-08 07:00:00 9.6 0 Calma 5 Sudoeste 0 -- -- 100
2018-09-08 06:00:00 9.8 2 Norte 4 Sur 0 -- -- 100
2018-09-08 05:00:00 10.5 0 Calma 4 Sur 0 -- -- 99
2018-09-08 04:00:00 11.5 0 Calma 3 Sur 0 -- -- 97
2018-09-08 03:00:00 13.2 0 Calma 4 Sudeste 0 -- -- 93
2018-09-08 02:00:00 15 0 Calma 4 Sudeste 0 -- -- 93
2018-09-08 01:00:00 15.4 0 Calma 2 Sudoeste 0 -- -- 97
2018-09-08 00:00:00 15.6 0 Calma 6 Noroeste 0 -- -- 95
2018-09-07 23:00:00 15.7 0 Calma 4 Noroeste 0 -- -- 95
2018-09-07 22:00:00 16 0 Calma 8 Noroeste 0 -- -- 92
2018-09-07 21:00:00 16.2 2 Noroeste 10 Noroeste 0 -- -- 91
2018-09-07 20:00:00 16.6 4 Noroeste 14 Norte 0 -- -- 89
2018-09-07 19:00:00 17.4 5 Noroeste 16 Noroeste 0 -- -- 87
2018-09-07 18:00:00 18.5 4 Norte 13 Nordeste 0 -- -- 83
2018-09-07 17:00:00 18.9 5 Norte 13 Noroeste 0 -- -- 80
2018-09-07 16:00:00 20 6 Norte 19 Nordeste 0 -- -- 77
2018-09-07 15:00:00 21.6 6 Norte 19 Nordeste 0.2 -- -- 74
2018-09-07 14:00:00 21.1 6 Norte 17 Nordeste 0 -- -- 76
2018-09-07 13:00:00 19.4 7 Norte 19 Norte 0 -- -- 77
2018-09-07 12:00:00 16.9 2 Nordeste 5 Noroeste 0 -- -- 87
2018-09-07 11:00:00 13.4 0 Calma 4 Norte 0 -- -- 100
2018-09-07 10:00:00 12.8 0 Calma 2 Norte 0 -- -- 100
2018-09-07 09:00:00 12 0 Calma 2 Nordeste 0 -- -- 100
2018-09-07 08:00:00 11.7 0 Calma 2 Noroeste 0 -- -- 100
2018-09-07 07:00:00 11.8 0 Calma 3 Norte 0 -- -- 100
2018-09-07 06:00:00 12.2 0 Calma 2 Noroeste 0 -- -- 100
2018-09-07 05:00:00 12.7 0 Calma 3 Norte 0 -- -- 100
2018-09-07 04:00:00 13.2 0 Calma 3 Norte 0 -- -- 100
2018-09-07 03:00:00 13.7 0 Calma 3 Noroeste 0 -- -- 100
2018-09-07 02:00:00 13.7 0 Calma 2 Norte 0 -- -- 100
2018-09-07 01:00:00 13.9 0 Calma 6 Nordeste 0.2 -- -- 100
2018-09-07 00:00:00 14.2 0 Calma 2 Nordeste 0 -- -- 100
2018-09-06 23:00:00 14.3 0 Calma 3 Noroeste 0.2 -- -- 100
2018-09-06 22:00:00 14.4 0 Calma 4 Norte 0.2 -- -- 99
2018-09-06 21:00:00 14.5 0 Calma 8 Noroeste 0.2 -- -- 98
2018-09-06 20:00:00 14.8 3 Norte 9 Noroeste 0 -- -- 98
2018-09-06 19:00:00 15.3 3 Noroeste 11 Nordeste 0.4 -- -- 96
2018-09-06 18:00:00 16.4 8 Nordeste 16 Nordeste 0 -- -- 86
2018-09-06 17:00:00 16.5 4 Norte 14 Norte 0 -- -- 87
2018-09-06 16:00:00 17.9 6 Norte 18 Norte 0 -- -- 78
2018-09-06 15:00:00 17.1 4 Norte 13 Norte 0 -- -- 88
2018-09-06 14:00:00 16.3 4 Norte 12 Nordeste 0 -- -- 92
2018-09-06 13:00:00 15.2 4 Noroeste 10 Noroeste 0 -- -- 97
2018-09-06 12:00:00 14.9 3 Noroeste 10 Norte 0.2 -- -- 95
2018-09-06 11:00:00 14.6 0 Calma 11 Noroeste 0 -- -- 95
2018-09-06 10:00:00 13.9 3 Noroeste 10 Noroeste 0 -- -- 100
2018-09-06 09:00:00 13.5 0 Calma 7 Noroeste 0 -- -- 100
2018-09-06 08:00:00 13.8 0 Calma 4 Noroeste 0 -- -- 100
2018-09-06 07:00:00 13.9 0 Calma 3 Este 0.2 -- -- 100
2018-09-06 06:00:00 14 0 Calma 2 Oeste 0 -- -- 100
2018-09-06 05:00:00 14 0 Calma 2 Sur 0 -- -- 100
2018-09-06 04:00:00 14.1 0 Calma 2 Sur 0 -- -- 100
2018-09-06 03:00:00 14 0 Calma 4 Noroeste 0 -- -- 100
2018-09-06 02:00:00 14.2 0 Calma 8 Noroeste 0.4 -- -- 99
2018-09-06 01:00:00 14.5 0 Calma 13 Oeste 0.6 -- -- 98
2018-09-06 00:00:00 14.7 2 Norte 11 Norte 0 -- -- 95
2018-09-05 23:00:00 15 2 Noroeste 7 Norte 0 -- -- 95
2018-09-05 22:00:00 15.4 0 Calma 6 Sur 0 -- -- 95
2018-09-05 21:00:00 15.7 0 Calma 7 Noroeste 0 -- -- 92
2018-09-05 20:00:00 16.3 2 Norte 8 Noroeste 0 -- -- 87
2018-09-05 19:00:00 17.7 4 Norte 11 Norte 0 -- -- 82
2018-09-05 18:00:00 18.2 2 Norte 12 Nordeste 0.2 -- -- 81
2018-09-05 17:00:00 17.9 4 Norte 15 Nordeste 0 -- -- 81
2018-09-05 16:00:00 18 5 Norte 21 Este 0 -- -- 82
2018-09-05 15:00:00 19.1 2 Norte 7 Norte 0 -- -- 79
2018-09-05 14:00:00 17.8 3 Nordeste 12 Noroeste 0 -- -- 83
2018-09-05 13:00:00 15.6 4 Noroeste 11 Noroeste 0 -- -- 96
2018-09-05 12:00:00 14.8 3 Noroeste 9 Noroeste 0.2 -- -- 99
2018-09-05 11:00:00 14.7 0 Calma 3 Sur 0 -- -- 100
2018-09-05 10:00:00 14.1 0 Calma 8 Sudoeste 0.2 -- -- 100
2018-09-05 09:00:00 14.1 2 Sudoeste 8 Norte 1.2 -- -- 100
2018-09-05 08:00:00 14.2 2 Noroeste 6 Noroeste 0 -- -- 100
2018-09-05 07:00:00 14.3 0 Calma 4 Noroeste 0.2 -- -- 100
2018-09-05 06:00:00 14.4 2 Noroeste 10 Noroeste 0.2 -- -- 99
2018-09-05 05:00:00 14.6 2 Norte 10 Noroeste 0.2 -- -- 99
2018-09-05 04:00:00 14.8 4 Norte 21 Noroeste 0.8 -- -- 99
2018-09-05 03:00:00 15.4 0 Calma 6 Oeste 0.6 -- -- 98
2018-09-05 02:00:00 15.9 2 Sudoeste 4 Sudoeste 0 -- -- 95
2018-09-05 01:00:00 16.1 0 Calma 7 Noroeste 0 -- -- 93
2018-09-05 00:00:00 16.3 0 Calma 9 Noroeste 0 -- -- 90
2018-09-04 23:00:00 16.5 3 Noroeste 10 Noroeste 0 -- -- 89
2018-09-04 22:00:00 16.8 3 Noroeste 8 Norte 0 -- -- 88
2018-09-04 21:00:00 17.1 2 Norte 9 Norte 0 -- -- 86
2018-09-04 20:00:00 17.4 0 Calma 11 Noroeste 0 -- -- 84
2018-09-04 19:00:00 18 4 Noroeste 11 Noroeste 0 -- -- 79
2018-09-04 18:00:00 19.2 4 Norte 14 Nordeste 0 -- -- 76
2018-09-04 17:00:00 20.9 5 Norte 17 Nordeste 0 -- -- 70
2018-09-04 16:00:00 21.7 6 Norte 19 Nordeste 0 -- -- 69
2018-09-04 15:00:00 21.8 7 Norte 21 Nordeste 0 -- -- 66
2018-09-04 14:00:00 20.6 7 Norte 21 Norte 0 -- -- 70
2018-09-04 13:00:00 18.8 6 Norte 16 Norte 0 -- -- 73
2018-09-04 12:00:00 16.4 5 Norte 13 Noroeste 0 -- -- 86
2018-09-04 11:00:00 14.3 0 Calma 0 Calma 0 -- -- 95
2018-09-04 10:00:00 13.8 0 Calma 3 Norte 0 -- -- 98
2018-09-04 09:00:00 13.1 0 Calma 2 Norte 0 -- -- 100
2018-09-04 08:00:00 12.8 0 Calma 2 Sudeste 0 -- -- 100
2018-09-04 07:00:00 13.1 0 Calma 3 Noroeste 0 -- -- 99
2018-09-04 06:00:00 13.4 0 Calma 4 Noroeste 0 -- -- 99
2018-09-04 05:00:00 13.8 0 Calma 5 Oeste 0 -- -- 100
2018-09-04 04:00:00 14.1 0 Calma 8 Noroeste 0 -- -- 99
2018-09-04 03:00:00 14.5 0 Calma -- -- 0 -- -- 100
2018-09-04 02:00:00 14.9 0 Calma 3 Sur 0 -- -- 99
2018-09-04 01:00:00 15.6 0 Calma 6 Noroeste 0 -- -- 97
2018-09-04 00:00:00 16 2 Norte 6 Nordeste 0 -- -- 99
2018-09-03 23:00:00 16.3 0 Calma 5 Sur 0.8 -- -- 97
2018-09-03 22:00:00 17 3 Norte 16 Nordeste 0.6 -- -- 92
2018-09-03 21:00:00 18 4 Norte 13 Noroeste 0 -- -- 86
2018-09-03 20:00:00 18.8 5 Norte 16 Nordeste 0 -- -- 84
2018-09-03 19:00:00 20.1 4 Norte 15 Norte 0 -- -- 79
2018-09-03 18:00:00 20.5 6 Norte 14 Norte 0 -- -- 78
2018-09-03 17:00:00 21.2 5 Norte 14 Norte 0 -- -- 76
2018-09-03 16:00:00 19.8 4 Norte 9 Noroeste 0 -- -- 82
2018-09-03 15:00:00 19.5 4 Norte 17 Nordeste 0 -- -- 82
2018-09-03 14:00:00 19.5 4 Noroeste 15 Norte 0 -- -- 82
2018-09-03 13:00:00 17.8 4 Noroeste 10 Norte 0 -- -- 87
2018-09-03 12:00:00 16.6 0 Calma 6 Norte 0 -- -- 92
2018-09-03 11:00:00 14.7 0 Calma 4 Nordeste 0 -- -- 97
2018-09-03 10:00:00 13.1 0 Calma 4 Sur 0 -- -- 100
2018-09-03 09:00:00 11.1 4 Sur 6 Sur 0 -- -- 100
2018-09-03 08:00:00 10.6 2 Sur 4 Sudeste 0 -- -- 100
2018-09-03 07:00:00 11.1 0 Calma 5 Sur 0 -- -- 99
2018-09-03 06:00:00 11.4 0 Calma 4 Norte 0 -- -- 99
2018-09-03 05:00:00 11.7 0 Calma -- -- 0 -- -- 98
2018-09-03 04:00:00 12.1 0 Calma -- -- 0 -- -- 98
2018-09-03 03:00:00 12.2 0 Calma 0 Calma 0 -- -- 97
2018-09-03 02:00:00 12.9 0 Calma 5 Sudoeste 0 -- -- 96
2018-09-03 01:00:00 13.7 2 Sur 4 Sur 0 -- -- 94
2018-09-03 00:00:00 15 2 Sur 4 Sur 0 -- -- 93
2018-09-02 23:00:00 16.1 2 Sur 5 Sur 0 -- -- 91
2018-09-02 22:00:00 16.7 0 Calma 5 Sur 0 -- -- 89
2018-09-02 21:00:00 18.9 0 Calma 6 Sur 0 -- -- 85
2018-09-02 20:00:00 21.3 3 Sur 10 Sudoeste 0 -- -- 82
2018-09-02 19:00:00 23.2 5 Sur 14 Sur 0.2 -- -- 74
2018-09-02 18:00:00 27.7 3 Noroeste 17 Norte 0 -- -- 52
2018-09-02 17:00:00 31.2 6 Norte 17 Norte 0 -- -- 42
2018-09-02 16:00:00 31.7 6 Norte 17 Norte 0 -- -- 41
2018-09-02 15:00:00 31.6 6 Norte 15 Noroeste 0 -- -- 42
2018-09-02 14:00:00 30.4 6 Norte 14 Norte 0 -- -- 45
2018-09-02 13:00:00 28.1 4 Norte 13 Norte 0 -- -- 55
2018-09-02 12:00:00 23 0 Calma 3 Norte 0 -- -- 75
2018-09-02 11:00:00 15.7 0 Calma 5 Este 4.4 -- -- 100
2018-09-02 10:00:00 14.5 3 Sudoeste 7 Este 0 -- -- 100
2018-09-02 09:00:00 13.5 2 Sur 7 Sur 0 -- -- 100
2018-09-02 08:00:00 12.9 2 Sur 7 Sur 0 -- -- 100
2018-09-02 07:00:00 12.9 3 Sur 6 Sur 0 -- -- 100
2018-09-02 06:00:00 13.2 3 Sur 6 Sur 0 -- -- 100
2018-09-02 05:00:00 13.5 2 Sur 5 Sur 0 -- -- 99
2018-09-02 04:00:00 14 2 Sur 5 Sur 0 -- -- 99
2018-09-02 03:00:00 14.7 2 Sur 4 Sur 0 -- -- 99
2018-09-02 02:00:00 15.1 2 Sur 4 Sudoeste 0 -- -- 99
2018-09-02 01:00:00 15.7 2 Sur 4 Sur 0 -- -- 98
2018-09-02 00:00:00 16.2 2 Sur 3 Sudeste 0 -- -- 96
2018-09-01 23:00:00 17.3 0 Calma 3 Sur 0 -- -- 94
2018-09-01 22:00:00 18.7 0 Calma 5 Sur 0 -- -- 91
2018-09-01 21:00:00 20.6 2 Sur 8 Noroeste 0 -- -- 89
2018-09-01 20:00:00 22.7 3 Sudeste 18 Norte 0 -- -- 81
2018-09-01 19:00:00 23.7 7 Noroeste 20 Norte 0 -- -- 77
2018-09-01 18:00:00 26.3 7 Noroeste 19 Norte 0 -- -- 69
2018-09-01 17:00:00 27.6 6 Norte 18 Norte 0 -- -- 63
2018-09-01 16:00:00 28 8 Norte 22 Norte 0 -- -- 60
2018-09-01 15:00:00 27.6 8 Norte 18 Norte 0 -- -- 59
2018-09-01 14:00:00 26.2 6 Norte 15 Oeste 0 -- -- 60
2018-09-01 13:00:00 24.1 4 Norte 12 Noroeste 0 -- -- 65
2018-09-01 12:00:00 19.8 3 Norte 4 Norte 0 -- -- 82
2018-09-01 11:00:00 12.5 2 Norte 3 Norte 0 -- -- 100
2018-09-01 10:00:00 11.3 0 Calma 3 Norte 0 -- -- 100
2018-09-01 09:00:00 11 2 Sur 5 Norte 0 -- -- 100
2018-09-01 08:00:00 11 0 Calma -- -- 0 -- -- 99
2018-09-01 07:00:00 11.4 0 Calma -- -- 0 -- -- 99
2018-09-01 06:00:00 12 0 Calma 3 Sudoeste 0 -- -- 98
2018-09-01 05:00:00 13 0 Calma 3 Sudeste 0 -- -- 96
2018-09-01 04:00:00 14.5 0 Calma 3 Sur 0 -- -- 93
2018-09-01 03:00:00 16.1 0 Calma 4 Sur 0 -- -- 95
2018-09-01 02:00:00 16.4 0 Calma 4 Este 0 -- -- 94
2018-09-01 01:00:00 16.8 0 Calma 4 Norte 0 -- -- 94
2018-09-01 00:00:00 17 0 Calma 4 Norte 0 -- -- 93
2018-08-31 23:00:00 17.5 0 Calma 5 Noroeste 0 -- -- 90
2018-08-31 22:00:00 17.9 0 Calma 6 Noroeste 0 -- -- 89
2018-08-31 21:00:00 19.3 3 Noroeste 12 Norte 0 -- -- 84
2018-08-31 20:00:00 20.2 4 Norte 13 Norte 0 -- -- 82
2018-08-31 19:00:00 22.2 4 Noroeste 19 Norte 0 -- -- 76
2018-08-31 18:00:00 24.8 7 Norte 19 Norte 0 -- -- 68
2018-08-31 17:00:00 26.2 6 Norte 17 Norte 0 -- -- 63
2018-08-31 16:00:00 26.5 7 Norte 17 Noroeste 0 -- -- 61
2018-08-31 15:00:00 26.4 7 Norte 19 Norte 0 -- -- 60
2018-08-31 14:00:00 24.7 6 Noroeste 15 Noroeste 0 -- -- 60
2018-08-31 13:00:00 22.2 5 Norte 11 Nordeste 0 -- -- 59
2018-08-31 12:00:00 18.1 2 Nordeste 5 Sudeste 0 -- -- 74
2018-08-31 11:00:00 10 0 Calma -- -- 0 -- -- 100
2018-08-31 10:00:00 8.9 0 Calma 4 Sur 0 -- -- 100
2018-08-31 09:00:00 8.4 0 Calma 4 Sur 0 -- -- 100
2018-08-31 08:00:00 8 2 Sur 3 Sur 0 -- -- 100
2018-08-31 07:00:00 8.1 2 Sur 3 Sur 0 -- -- 99
2018-08-31 06:00:00 8.6 0 Calma 5 Sur 0 -- -- 99
2018-08-31 05:00:00 9 0 Calma 3 Sur 0 -- -- 97
2018-08-31 04:00:00 9.6 0 Calma 3 Sur 0 -- -- 96
2018-08-31 03:00:00 10.6 0 Calma 3 Sur 0 -- -- 92
2018-08-31 02:00:00 12.4 0 Calma 4 Sur 0 -- -- 86
2018-08-31 01:00:00 14.9 2 Sur 8 Sudeste 0 -- -- 78
2018-08-31 00:00:00 16.1 0 Calma 9 Este 0 -- -- 81
2018-08-30 23:00:00 17.1 0 Calma 10 Noroeste 0 -- -- 92
2018-08-30 22:00:00 17.7 3 Noroeste 8 Noroeste 0 -- -- 90
2018-08-30 21:00:00 18 3 Noroeste 12 Noroeste 0 -- -- 88
2018-08-30 20:00:00 19.3 3 Oeste 10 Oeste 0 -- -- 82
2018-08-30 19:00:00 20.3 4 Noroeste 12 Norte 0 -- -- 79
2018-08-30 18:00:00 21.8 5 Norte 15 Nordeste 0 -- -- 72
2018-08-30 17:00:00 21.3 4 Norte 13 Norte 0 -- -- 73
2018-08-30 16:00:00 20.7 4 Norte 14 Norte 0 -- -- 75
2018-08-30 15:00:00 20.6 6 Norte 15 Norte 0 -- -- 74
2018-08-30 14:00:00 20.3 3 Norte 8 Noroeste 0 -- -- 71
2018-08-30 13:00:00 18.1 3 Noroeste 10 Norte 0 -- -- 82
2018-08-30 12:00:00 16.9 4 Norte 10 Noroeste 0 -- -- 87
2018-08-30 11:00:00 15.8 0 Calma 6 Noroeste 0 -- -- 89
2018-08-30 10:00:00 15.1 0 Calma 5 Norte 0 -- -- 90
2018-08-30 09:00:00 14.7 0 Calma 4 Sudeste 0 -- -- 95
2018-08-30 08:00:00 14.5 2 Sudeste 3 Sur 0 -- -- 97
2018-08-30 07:00:00 14.5 0 Calma 4 Sur 0 -- -- 97
2018-08-30 06:00:00 14.6 0 Calma 5 Noroeste 0 -- -- 97
2018-08-30 05:00:00 14.6 0 Calma 6 Noroeste 0 -- -- 96
2018-08-30 04:00:00 14.7 0 Calma 5 Norte 0 -- -- 96
2018-08-30 03:00:00 14.7 0 Calma 7 Norte 0 -- -- 95
2018-08-30 02:00:00 14.8 0 Calma 8 Oeste 0 -- -- 95
2018-08-30 01:00:00 14.9 3 Noroeste 9 Noroeste 0 -- -- 96
2018-08-30 00:00:00 15.3 3 Noroeste 8 Norte 0 -- -- 95
2018-08-29 23:00:00 15.5 0 Calma 6 Norte 0 -- -- 95
2018-08-29 22:00:00 15.7 0 Calma 9 Noroeste 0 -- -- 94
2018-08-29 21:00:00 15.8 5 Noroeste 15 Noroeste 0 -- -- 93
2018-08-29 20:00:00 16.4 4 Noroeste 15 Norte 0 -- -- 92
2018-08-29 19:00:00 17.2 4 Norte 19 Nordeste 0 -- -- 88
2018-08-29 18:00:00 18.4 5 Norte 15 Noroeste 0 -- -- 85
2018-08-29 17:00:00 18.8 4 Noroeste 13 Nordeste 0 -- -- 84
2018-08-29 16:00:00 19 5 Norte 20 Nordeste 0 -- -- 83
2018-08-29 15:00:00 18.7 5 Norte 17 Nordeste 0 -- -- 84
2018-08-29 14:00:00 19.7 5 Norte 15 Norte 0 -- -- 83
2018-08-29 13:00:00 21.1 6 Norte 21 Nordeste 0 -- -- 76
2018-08-29 12:00:00 18.8 4 Norte 17 Nordeste 0.2 -- -- 86
2018-08-29 11:00:00 17.4 4 Noroeste 10 Noroeste 0 -- -- 94
2018-08-29 10:00:00 16.9 0 Calma 4 Sudeste 0 -- -- 96
2018-08-29 09:00:00 16 0 Calma 2 Sur 0.2 -- -- 99
2018-08-29 08:00:00 15.8 0 Calma 5 Sudoeste 0.2 -- -- 99
2018-08-29 07:00:00 15.6 0 Calma 0 Calma 0 -- -- 98
2018-08-29 06:00:00 15.2 0 Calma 0 Calma 0 -- -- 97
2018-08-29 05:00:00 14.7 0 Calma 0 Calma 0 -- -- 98
2018-08-29 04:00:00 14.6 0 Calma -- -- 0 -- -- 97
2018-08-29 03:00:00 14.6 0 Calma 5 Sudeste 0 -- -- 95
2018-08-29 02:00:00 14.9 2 Sur 4 Este 0 -- -- 95
2018-08-29 01:00:00 15 0 Calma 4 Sudoeste 0 -- -- 95
2018-08-29 00:00:00 15.1 0 Calma 5 Sudeste 0 -- -- 93
2018-08-28 23:00:00 16.4 2 Sur 6 Sur 0 -- -- 91
2018-08-28 22:00:00 18 2 Sur 7 Sudoeste 0 -- -- 85
2018-08-28 21:00:00 20 3 Sur 9 Noroeste 0 -- -- 78
2018-08-28 20:00:00 21.8 3 Norte 25 Norte 0 -- -- 70
2018-08-28 19:00:00 23.6 4 Noroeste 13 Noroeste 0 -- -- 61
2018-08-28 18:00:00 26.4 6 Noroeste 19 Noroeste 0 -- -- 48
2018-08-28 17:00:00 28 7 Nordeste 22 Este 0 -- -- 41
2018-08-28 16:00:00 28.2 7 Nordeste 26 Nordeste 0 -- -- 36
2018-08-28 15:00:00 27.9 10 Nordeste 30 Sudeste 0 -- -- 34
2018-08-28 14:00:00 27.5 12 Este 28 Nordeste 0 -- -- 34
2018-08-28 13:00:00 24.6 3 Norte 8 Norte 0 -- -- 57
2018-08-28 12:00:00 21.1 0 Calma -- -- 0 -- -- 79
2018-08-28 11:00:00 16.6 0 Calma 6 Este 0 -- -- 100
2018-08-28 10:00:00 14.8 3 Sudoeste 8 Este 0 -- -- 100
2018-08-28 09:00:00 14.8 2 Sudeste 5 Nordeste 0 -- -- 100
2018-08-28 08:00:00 15.2 3 Sur 6 Sudeste 0.4 -- -- 100
2018-08-28 07:00:00 15.3 0 Calma 10 Oeste 0 -- -- 99
2018-08-28 06:00:00 15.3 3 Sur 6 Este 0.2 -- -- 99
2018-08-28 05:00:00 15.6 2 Norte 11 Sur 0.2 -- -- 98
2018-08-28 04:00:00 15.8 2 Noroeste 6 Sudeste 0 -- -- 97
2018-08-28 03:00:00 16.3 3 Norte 6 Sur 0 -- -- 97
2018-08-28 02:00:00 16.4 0 Calma 4 Este 0 -- -- 96
2018-08-28 01:00:00 16.8 0 Calma 5 Sur 0 -- -- 96
2018-08-28 00:00:00 17.5 0 Calma 5 Sur 0 -- -- 93
2018-08-27 23:00:00 18.3 0 Calma 5 Sur 0 -- -- 92
2018-08-27 22:00:00 19.1 2 Sur 4 Norte 0 -- -- 88
2018-08-27 21:00:00 21 0 Calma 5 Sudoeste 0 -- -- 81
2018-08-27 20:00:00 22.2 2 Noroeste 13 Noroeste 0 -- -- 76
2018-08-27 19:00:00 23.2 5 Noroeste 21 Norte 0 -- -- 74
2018-08-27 18:00:00 25.3 8 Noroeste 19 Norte 0 -- -- 68
2018-08-27 17:00:00 27.4 6 Norte 19 Norte 0 -- -- 62
2018-08-27 16:00:00 27.5 6 Norte 21 Nordeste 0 -- -- 62
2018-08-27 15:00:00 26.8 8 Norte 20 Norte 0 -- -- 63
2018-08-27 14:00:00 26.3 7 Norte 18 Norte 0 -- -- 64
2018-08-27 13:00:00 24.5 6 Norte 16 Norte 0 -- -- 67
2018-08-27 12:00:00 21 4 Sudeste 7 Sudeste 0 -- -- 73
2018-08-27 11:00:00 13 0 Calma -- -- 0 -- -- 100
2018-08-27 10:00:00 11.2 0 Calma -- -- 0 -- -- 100
2018-08-27 09:00:00 10.9 0 Calma -- -- 0 -- -- 100
2018-08-27 08:00:00 10.7 0 Calma 0 Calma 0 -- -- 100
2018-08-27 07:00:00 11.1 0 Calma -- -- 0 -- -- 99
2018-08-27 06:00:00 11.3 0 Calma -- -- 0 -- -- 99
2018-08-27 05:00:00 11.7 0 Calma -- -- 0 -- -- 98
2018-08-27 04:00:00 12.1 0 Calma -- -- 0 -- -- 97
2018-08-27 03:00:00 12.7 0 Calma -- -- 0 -- -- 97
2018-08-27 02:00:00 13.4 0 Calma -- -- 0 -- -- 96
2018-08-27 01:00:00 14.1 0 Calma 3 Sur 0 -- -- 95
2018-08-27 00:00:00 14.9 0 Calma 5 Sur 0 -- -- 94
2018-08-26 23:00:00 16 0 Calma 3 Sur 0 -- -- 92
2018-08-26 22:00:00 17.7 0 Calma 5 Sur 0 -- -- 87
2018-08-26 21:00:00 19.5 3 Sur 14 Norte 0 -- -- 83
2018-08-26 20:00:00 20.6 5 Noroeste 12 Norte 0 -- -- 77
2018-08-26 19:00:00 23.3 4 Noroeste 18 Norte 0 -- -- 68
2018-08-26 18:00:00 25.8 7 Norte 20 Norte 0 -- -- 58
2018-08-26 17:00:00 26.2 7 Norte 21 Norte 0 -- -- 56
2018-08-26 16:00:00 26.2 8 Norte 25 Noroeste 0 -- -- 57
2018-08-26 15:00:00 25.7 8 Norte 21 Norte 0 -- -- 56
2018-08-26 14:00:00 24.7 7 Norte 18 Norte 0 -- -- 58
2018-08-26 13:00:00 22.7 4 Noroeste 10 Noroeste 0 -- -- 62
2018-08-26 12:00:00 18.6 3 Este 6 Nordeste 0 -- -- 73
2018-08-26 11:00:00 12.9 0 Calma 2 Sudeste 0 -- -- 100
2018-08-26 10:00:00 10.8 0 Calma 3 Sur 0 -- -- 99
2018-08-26 09:00:00 10.1 0 Calma 3 Sudoeste 0 -- -- 98
2018-08-26 08:00:00 10.2 2 Sur 4 Sudoeste 0 -- -- 95
2018-08-26 07:00:00 11.5 0 Calma 5 Sur 0 -- -- 92
2018-08-26 06:00:00 13.2 2 Sur 6 Sur 0 -- -- 89
2018-08-26 05:00:00 14 0 Calma 4 Sudeste 0 -- -- 91
2018-08-26 04:00:00 14.1 0 Calma 2 Norte 0 -- -- 91
2018-08-26 03:00:00 14.1 0 Calma 5 Norte 0 -- -- 89
2018-08-26 02:00:00 14.3 0 Calma 5 Noroeste 0 -- -- 88
2018-08-26 01:00:00 14.5 0 Calma 8 Norte 0 -- -- 86
2018-08-26 00:00:00 14.6 3 Noroeste 10 Noroeste 0 -- -- 84
2018-08-25 23:00:00 14.9 3 Noroeste 11 Noroeste 0 -- -- 83
2018-08-25 22:00:00 15.3 4 Noroeste 17 Noroeste 0 -- -- 82
2018-08-25 21:00:00 16.1 8 Nordeste 22 Nordeste 0 -- -- 79
2018-08-25 20:00:00 17.2 6 Norte 13 Norte 0 -- -- 76
2018-08-25 19:00:00 19.8 5 Norte 17 Norte 0 -- -- 67
2018-08-25 18:00:00 21 6 Norte 17 Norte 0 -- -- 62
2018-08-25 17:00:00 22.1 7 Norte 17 Noroeste 0 -- -- 60
2018-08-25 16:00:00 22.2 7 Norte 21 Noroeste 0 -- -- 57
2018-08-25 15:00:00 21.6 7 Norte 19 Norte 0 -- -- 58
2018-08-25 14:00:00 20.7 7 Norte 17 Noroeste 0 -- -- 60
2018-08-25 13:00:00 19.2 5 Norte 14 Norte 0 -- -- 63
2018-08-25 12:00:00 17.2 4 Norte 11 Norte 0 -- -- 65
2018-08-25 11:00:00 13 0 Calma 3 Norte 0 -- -- 86
2018-08-25 10:00:00 11.8 2 Norte 4 Norte 0 -- -- 87
2018-08-25 09:00:00 10.8 0 Calma 4 Norte 0 -- -- 90
2018-08-25 08:00:00 10.3 0 Calma 5 Sur 0 -- -- 92
2018-08-25 07:00:00 12 0 Calma 4 Sudoeste 0 -- -- 91
2018-08-25 06:00:00 12.4 0 Calma 9 Sur 0 -- -- 89
2018-08-25 05:00:00 13.2 2 Sur 9 Sur 0 -- -- 85
2018-08-25 04:00:00 13.2 0 Calma 4 Sur 0 -- -- 97
2018-08-25 03:00:00 14.1 0 Calma 12 Noroeste 0 -- -- 92
2018-08-25 02:00:00 14.5 4 Noroeste 10 Norte 0 -- -- 93
2018-08-25 01:00:00 14.6 0 Calma 3 Sur 0 -- -- 93
2018-08-25 00:00:00 14.8 2 Sudoeste 10 Oeste 0 -- -- 92
2018-08-24 23:00:00 14.9 3 Noroeste 10 Noroeste 0 -- -- 92
2018-08-24 22:00:00 15.1 5 Norte 13 Norte 0 -- -- 92
2018-08-24 21:00:00 15.5 4 Noroeste 14 Norte 0 -- -- 91
2018-08-24 20:00:00 16.4 6 Noroeste 21 Noroeste 0 -- -- 88
2018-08-24 19:00:00 17.8 5 Noroeste 14 Norte 0 -- -- 83
2018-08-24 18:00:00 18 6 Norte 20 Nordeste 0 -- -- 82
2018-08-24 17:00:00 19.5 8 Norte 25 Nordeste 0 -- -- 77
2018-08-24 16:00:00 20.9 8 Norte 23 Noroeste 0 -- -- 73
2018-08-24 15:00:00 21.2 9 Norte 21 Nordeste 0 -- -- 73
2018-08-24 14:00:00 22 8 Norte 24 Nordeste 0 -- -- 69
2018-08-24 13:00:00 21.5 8 Norte 18 Norte 0 -- -- 70
2018-08-24 12:00:00 20.2 4 Norte 10 Norte 0 -- -- 72
2018-08-24 11:00:00 16 3 Sudeste 4 Sudeste 0 -- -- 89
2018-08-24 10:00:00 15.1 0 Calma 4 Noroeste 0 -- -- 93
2018-08-24 09:00:00 14.7 0 Calma 3 Noroeste 0 -- -- 94
2018-08-24 08:00:00 14.4 0 Calma 2 Este 0 -- -- 94
2018-08-24 07:00:00 14.3 0 Calma 3 Sur 0 -- -- 92
2018-08-24 06:00:00 14.6 0 Calma 8 Sudoeste 0 -- -- 88
2018-08-24 05:00:00 14.8 3 Sur 5 Sur 0 -- -- 95
2018-08-24 04:00:00 15.4 0 Calma 3 Norte 0 -- -- 92
2018-08-24 03:00:00 15.9 0 Calma 6 Sudoeste 0 -- -- 88
2018-08-24 02:00:00 16.5 0 Calma 3 Sudeste 0 -- -- 95
2018-08-24 01:00:00 17 0 Calma 8 Oeste 0 -- -- 94
2018-08-24 00:00:00 17.5 3 Noroeste 9 Noroeste 0 -- -- 93
2018-08-23 23:00:00 18.3 3 Noroeste 10 Oeste 0 -- -- 91
2018-08-23 22:00:00 18.5 3 Norte 8 Noroeste 0 -- -- 92
2018-08-23 21:00:00 19.7 0 Calma 12 Norte 0 -- -- 87
2018-08-23 20:00:00 20.6 6 Noroeste 18 Norte 0 -- -- 85
2018-08-23 19:00:00 24.4 6 Norte 20 Noroeste 0 -- -- 73
2018-08-23 18:00:00 25.8 7 Norte 20 Noroeste 0 -- -- 67
2018-08-23 17:00:00 27 6 Norte 19 Norte 0 -- -- 62
2018-08-23 16:00:00 27.4 7 Norte 18 Nordeste 0 -- -- 61
2018-08-23 15:00:00 26.7 6 Norte 20 Norte 0 -- -- 60
2018-08-23 14:00:00 25.2 8 Norte 19 Norte 0 -- -- 66
2018-08-23 13:00:00 23.3 7 Norte 16 Noroeste 0 -- -- 72
2018-08-23 12:00:00 21.8 3 Norte 10 Norte 0 -- -- 74
2018-08-23 11:00:00 16.2 0 Calma 2 Nordeste 0 -- -- 96
2018-08-23 10:00:00 15.6 0 Calma 3 Norte 0 -- -- 95
2018-08-23 09:00:00 14 0 Calma 2 Sudeste 0 -- -- 99
2018-08-23 08:00:00 12.8 0 Calma 3 Sudeste 0 -- -- 98
2018-08-23 07:00:00 12.8 0 Calma 2 Sur 0 -- -- 97
2018-08-23 06:00:00 13.2 0 Calma 4 Sur 0 -- -- 96
2018-08-23 05:00:00 14.1 0 Calma 2 Sur 0 -- -- 94
2018-08-23 04:00:00 15.1 0 Calma 3 Sudoeste 0 -- -- 93
2018-08-23 03:00:00 16.1 0 Calma 2 Sur 0 -- -- 91
2018-08-23 02:00:00 17.4 0 Calma 8 Sudoeste 0 -- -- 87
2018-08-23 01:00:00 19.2 2 Sur 5 Norte 0 -- -- 85
2018-08-23 00:00:00 20.2 0 Calma 6 Noroeste 0 -- -- 91